sensor_id;sensor_type;location;lat;lon;timestamp;P1;durP1;ratioP1;P2;durP2;ratioP2
16029;SDS011;34770;49.272;11.070;2023-11-19T00:01:52;4.82;;;4.00;;
16029;SDS011;34770;49.272;11.070;2023-11-19T00:04:18;4.43;;;4.07;;
16029;SDS011;34770;49.272;11.070;2023-11-19T00:06:43;5.15;;;4.65;;
16029;SDS011;34770;49.272;11.070;2023-11-19T00:09:08;4.57;;;4.18;;
16029;SDS011;34770;49.272;11.070;2023-11-19T00:11:34;5.07;;;4.30;;
16029;SDS011;34770;49.272;11.070;2023-11-19T00:13:59;5.45;;;4.63;;
16029;SDS011;34770;49.272;11.070;2023-11-19T00:16:24;5.00;;;4.53;;
16029;SDS011;34770;49.272;11.070;2023-11-19T00:18:50;5.07;;;4.23;;
16029;SDS011;34770;49.272;11.070;2023-11-19T00:21:16;4.20;;;3.80;;
16029;SDS011;34770;49.272;11.070;2023-11-19T00:23:41;4.75;;;4.25;;
16029;SDS011;34770;49.272;11.070;2023-11-19T00:26:06;5.20;;;4.70;;
16029;SDS011;34770;49.272;11.070;2023-11-19T00:28:32;4.57;;;4.18;;
16029;SDS011;34770;49.272;11.070;2023-11-19T00:30:58;4.30;;;3.95;;
16029;SDS011;34770;49.272;11.070;2023-11-19T00:33:24;4.85;;;4.45;;
16029;SDS011;34770;49.272;11.070;2023-11-19T00:35:49;7.00;;;4.05;;
16029;SDS011;34770;49.272;11.070;2023-11-19T00:38:15;4.83;;;4.43;;
16029;SDS011;34770;49.272;11.070;2023-11-19T00:40:40;4.60;;;4.20;;
16029;SDS011;34770;49.272;11.070;2023-11-19T00:43:06;4.50;;;4.10;;
16029;SDS011;34770;49.272;11.070;2023-11-19T00:45:32;5.50;;;4.45;;
16029;SDS011;34770;49.272;11.070;2023-11-19T00:47:57;5.15;;;4.57;;
16029;SDS011;34770;49.272;11.070;2023-11-19T00:50:24;5.32;;;4.65;;
16029;SDS011;34770;49.272;11.070;2023-11-19T00:52:50;4.57;;;4.18;;
16029;SDS011;34770;49.272;11.070;2023-11-19T00:55:16;4.85;;;3.97;;
16029;SDS011;34770;49.272;11.070;2023-11-19T00:57:42;4.70;;;4.23;;
16029;SDS011;34770;49.272;11.070;2023-11-19T01:00:08;6.63;;;4.35;;
16029;SDS011;34770;49.272;11.070;2023-11-19T01:02:42;4.63;;;4.17;;
16029;SDS011;34770;49.272;11.070;2023-11-19T01:05:08;5.13;;;4.63;;
16029;SDS011;34770;49.272;11.070;2023-11-19T01:07:34;5.20;;;4.70;;
16029;SDS011;34770;49.272;11.070;2023-11-19T01:09:59;5.45;;;4.95;;
16029;SDS011;34770;49.272;11.070;2023-11-19T01:12:24;4.70;;;4.20;;
16029;SDS011;34770;49.272;11.070;2023-11-19T01:14:50;4.90;;;4.40;;
16029;SDS011;34770;49.272;11.070;2023-11-19T01:17:15;6.15;;;5.55;;
16029;SDS011;34770;49.272;11.070;2023-11-19T01:19:41;5.40;;;4.70;;
16029;SDS011;34770;49.272;11.070;2023-11-19T01:22:06;6.28;;;5.40;;
16029;SDS011;34770;49.272;11.070;2023-11-19T01:24:32;5.70;;;5.13;;
16029;SDS011;34770;49.272;11.070;2023-11-19T01:26:57;5.82;;;5.03;;
16029;SDS011;34770;49.272;11.070;2023-11-19T01:29:24;5.23;;;4.60;;
16029;SDS011;34770;49.272;11.070;2023-11-19T01:31:50;8.93;;;5.07;;
16029;SDS011;34770;49.272;11.070;2023-11-19T01:34:18;6.05;;;5.35;;
16029;SDS011;34770;49.272;11.070;2023-11-19T01:36:43;6.25;;;5.47;;
16029;SDS011;34770;49.272;11.070;2023-11-19T01:39:09;5.28;;;4.78;;
16029;SDS011;34770;49.272;11.070;2023-11-19T01:41:34;5.88;;;5.28;;
16029;SDS011;34770;49.272;11.070;2023-11-19T01:44:00;10.17;;;5.20;;
16029;SDS011;34770;49.272;11.070;2023-11-19T01:46:26;5.03;;;4.50;;
16029;SDS011;34770;49.272;11.070;2023-11-19T01:48:52;6.53;;;5.20;;
16029;SDS011;34770;49.272;11.070;2023-11-19T01:51:17;6.03;;;5.43;;
16029;SDS011;34770;49.272;11.070;2023-11-19T01:53:43;6.20;;;5.60;;
16029;SDS011;34770;49.272;11.070;2023-11-19T01:56:09;6.43;;;5.50;;
16029;SDS011;34770;49.272;11.070;2023-11-19T01:58:36;6.10;;;5.50;;
16029;SDS011;34770;49.272;11.070;2023-11-19T02:01:04;6.60;;;5.90;;
16029;SDS011;34770;49.272;11.070;2023-11-19T02:03:33;6.43;;;5.83;;
16029;SDS011;34770;49.272;11.070;2023-11-19T02:05:59;7.10;;;5.70;;
16029;SDS011;34770;49.272;11.070;2023-11-19T02:08:25;6.55;;;5.85;;
16029;SDS011;34770;49.272;11.070;2023-11-19T02:10:51;7.35;;;5.82;;
16029;SDS011;34770;49.272;11.070;2023-11-19T02:13:17;6.43;;;5.47;;
16029;SDS011;34770;49.272;11.070;2023-11-19T02:15:43;5.90;;;5.30;;
16029;SDS011;34770;49.272;11.070;2023-11-19T02:18:18;6.18;;;5.60;;
16029;SDS011;34770;49.272;11.070;2023-11-19T02:20:44;5.93;;;5.32;;
16029;SDS011;34770;49.272;11.070;2023-11-19T02:23:11;7.05;;;5.82;;
16029;SDS011;34770;49.272;11.070;2023-11-19T02:25:38;7.25;;;6.32;;
16029;SDS011;34770;49.272;11.070;2023-11-19T02:28:05;6.75;;;6.00;;
16029;SDS011;34770;49.272;11.070;2023-11-19T02:30:32;7.07;;;6.43;;
16029;SDS011;34770;49.272;11.070;2023-11-19T02:32:58;7.95;;;6.10;;
16029;SDS011;34770;49.272;11.070;2023-11-19T02:35:26;7.03;;;6.22;;
16029;SDS011;34770;49.272;11.070;2023-11-19T02:37:51;7.35;;;6.53;;
16029;SDS011;34770;49.272;11.070;2023-11-19T02:40:16;7.63;;;5.95;;
16029;SDS011;34770;49.272;11.070;2023-11-19T02:42:42;6.95;;;6.10;;
16029;SDS011;34770;49.272;11.070;2023-11-19T02:45:08;6.40;;;5.80;;
16029;SDS011;34770;49.272;11.070;2023-11-19T02:47:38;6.85;;;6.18;;
16029;SDS011;34770;49.272;11.070;2023-11-19T02:50:04;6.82;;;6.22;;
16029;SDS011;34770;49.272;11.070;2023-11-19T02:52:32;6.80;;;6.10;;
16029;SDS011;34770;49.272;11.070;2023-11-19T02:55:02;7.85;;;6.75;;
16029;SDS011;34770;49.272;11.070;2023-11-19T02:57:30;7.32;;;6.55;;
16029;SDS011;34770;49.272;11.070;2023-11-19T02:59:57;8.35;;;7.55;;
16029;SDS011;34770;49.272;11.070;2023-11-19T03:02:22;8.02;;;7.22;;
16029;SDS011;34770;49.272;11.070;2023-11-19T03:04:49;9.93;;;7.47;;
16029;SDS011;34770;49.272;11.070;2023-11-19T03:07:14;8.45;;;7.13;;
16029;SDS011;34770;49.272;11.070;2023-11-19T03:09:40;7.97;;;6.80;;
16029;SDS011;34770;49.272;11.070;2023-11-19T03:12:05;8.70;;;7.78;;
16029;SDS011;34770;49.272;11.070;2023-11-19T03:17:53;9.32;;;7.20;;
16029;SDS011;34770;49.272;11.070;2023-11-19T03:20:19;8.65;;;7.40;;
16029;SDS011;34770;49.272;11.070;2023-11-19T03:22:45;11.40;;;7.82;;
16029;SDS011;34770;49.272;11.070;2023-11-19T03:25:11;7.68;;;6.70;;
16029;SDS011;34770;49.272;11.070;2023-11-19T03:27:38;8.20;;;6.88;;
16029;SDS011;34770;49.272;11.070;2023-11-19T03:30:04;8.02;;;7.25;;
16029;SDS011;34770;49.272;11.070;2023-11-19T03:32:33;7.53;;;6.72;;
16029;SDS011;34770;49.272;11.070;2023-11-19T03:35:00;7.50;;;6.68;;
16029;SDS011;34770;49.272;11.070;2023-11-19T03:37:26;7.55;;;6.85;;
16029;SDS011;34770;49.272;11.070;2023-11-19T03:39:53;8.85;;;6.93;;
16029;SDS011;34770;49.272;11.070;2023-11-19T03:42:20;8.40;;;7.57;;
16029;SDS011;34770;49.272;11.070;2023-11-19T03:44:45;7.50;;;6.80;;
16029;SDS011;34770;49.272;11.070;2023-11-19T03:47:11;10.13;;;7.20;;
16029;SDS011;34770;49.272;11.070;2023-11-19T03:49:36;8.80;;;7.95;;
16029;SDS011;34770;49.272;11.070;2023-11-19T03:52:02;8.25;;;6.75;;
16029;SDS011;34770;49.272;11.070;2023-11-19T03:54:27;7.65;;;6.65;;
16029;SDS011;34770;49.272;11.070;2023-11-19T03:56:53;8.10;;;6.90;;
16029;SDS011;34770;49.272;11.070;2023-11-19T03:59:18;10.80;;;7.05;;
16029;SDS011;34770;49.272;11.070;2023-11-19T04:01:45;8.43;;;7.00;;
16029;SDS011;34770;49.272;11.070;2023-11-19T04:04:11;8.60;;;7.20;;
16029;SDS011;34770;49.272;11.070;2023-11-19T04:06:37;8.90;;;7.68;;
16029;SDS011;34770;49.272;11.070;2023-11-19T04:09:02;9.33;;;7.83;;
16029;SDS011;34770;49.272;11.070;2023-11-19T04:11:28;10.65;;;7.88;;
16029;SDS011;34770;49.272;11.070;2023-11-19T04:13:53;9.60;;;7.97;;
16029;SDS011;34770;49.272;11.070;2023-11-19T04:16:18;10.77;;;7.97;;
16029;SDS011;34770;49.272;11.070;2023-11-19T04:18:44;9.33;;;8.30;;
16029;SDS011;34770;49.272;11.070;2023-11-19T04:21:09;10.47;;;8.30;;
16029;SDS011;34770;49.272;11.070;2023-11-19T04:23:34;12.98;;;9.15;;
16029;SDS011;34770;49.272;11.070;2023-11-19T04:26:03;11.73;;;10.02;;
16029;SDS011;34770;49.272;11.070;2023-11-19T04:28:29;10.68;;;8.80;;
16029;SDS011;34770;49.272;11.070;2023-11-19T04:30:55;12.65;;;9.98;;
16029;SDS011;34770;49.272;11.070;2023-11-19T04:33:21;10.55;;;8.73;;
16029;SDS011;34770;49.272;11.070;2023-11-19T04:35:46;11.93;;;9.10;;
16029;SDS011;34770;49.272;11.070;2023-11-19T04:38:11;11.38;;;8.98;;
16029;SDS011;34770;49.272;11.070;2023-11-19T04:40:37;12.30;;;9.75;;
16029;SDS011;34770;49.272;11.070;2023-11-19T04:43:02;10.70;;;9.15;;
16029;SDS011;34770;49.272;11.070;2023-11-19T04:45:27;10.65;;;9.40;;
16029;SDS011;34770;49.272;11.070;2023-11-19T04:47:53;11.50;;;9.85;;
16029;SDS011;34770;49.272;11.070;2023-11-19T04:50:18;10.35;;;8.45;;
16029;SDS011;34770;49.272;11.070;2023-11-19T04:52:43;10.82;;;8.50;;
16029;SDS011;34770;49.272;11.070;2023-11-19T04:55:10;9.50;;;7.78;;
16029;SDS011;34770;49.272;11.070;2023-11-19T04:57:39;9.77;;;8.57;;
16029;SDS011;34770;49.272;11.070;2023-11-19T05:00:05;10.98;;;8.50;;
16029;SDS011;34770;49.272;11.070;2023-11-19T05:02:32;10.55;;;9.30;;
16029;SDS011;34770;49.272;11.070;2023-11-19T05:04:57;10.77;;;8.90;;
16029;SDS011;34770;49.272;11.070;2023-11-19T05:07:23;10.98;;;8.65;;
16029;SDS011;34770;49.272;11.070;2023-11-19T05:09:48;10.80;;;7.97;;
16029;SDS011;34770;49.272;11.070;2023-11-19T05:12:14;8.25;;;7.07;;
16029;SDS011;34770;49.272;11.070;2023-11-19T05:14:39;9.38;;;7.60;;
16029;SDS011;34770;49.272;11.070;2023-11-19T05:17:05;11.13;;;7.63;;
16029;SDS011;34770;49.272;11.070;2023-11-19T05:19:30;8.60;;;6.30;;
16029;SDS011;34770;49.272;11.070;2023-11-19T05:21:55;6.50;;;5.80;;
16029;SDS011;34770;49.272;11.070;2023-11-19T05:24:21;7.05;;;6.22;;
16029;SDS011;34770;49.272;11.070;2023-11-19T05:26:46;8.07;;;6.57;;
16029;SDS011;34770;49.272;11.070;2023-11-19T05:29:12;6.20;;;5.60;;
16029;SDS011;34770;49.272;11.070;2023-11-19T05:31:37;6.43;;;5.80;;
16029;SDS011;34770;49.272;11.070;2023-11-19T05:34:03;6.63;;;5.65;;
16029;SDS011;34770;49.272;11.070;2023-11-19T05:36:29;8.52;;;6.20;;
16029;SDS011;34770;49.272;11.070;2023-11-19T05:38:54;7.18;;;6.47;;
16029;SDS011;34770;49.272;11.070;2023-11-19T05:41:20;7.80;;;5.95;;
16029;SDS011;34770;49.272;11.070;2023-11-19T05:43:45;6.70;;;5.85;;
16029;SDS011;34770;49.272;11.070;2023-11-19T05:46:11;10.68;;;5.35;;
16029;SDS011;34770;49.272;11.070;2023-11-19T05:48:38;5.35;;;4.60;;
16029;SDS011;34770;49.272;11.070;2023-11-19T05:51:03;6.85;;;4.93;;
16029;SDS011;34770;49.272;11.070;2023-11-19T05:53:30;5.47;;;4.97;;
16029;SDS011;34770;49.272;11.070;2023-11-19T05:55:56;5.30;;;4.80;;
16029;SDS011;34770;49.272;11.070;2023-11-19T05:58:25;6.07;;;4.70;;
16029;SDS011;34770;49.272;11.070;2023-11-19T06:00:51;4.65;;;4.18;;
16029;SDS011;34770;49.272;11.070;2023-11-19T06:03:17;5.20;;;4.70;;
16029;SDS011;34770;49.272;11.070;2023-11-19T06:05:46;4.85;;;4.32;;
16029;SDS011;34770;49.272;11.070;2023-11-19T06:08:12;5.28;;;4.78;;
16029;SDS011;34770;49.272;11.070;2023-11-19T06:10:41;4.05;;;3.75;;
16029;SDS011;34770;49.272;11.070;2023-11-19T06:13:07;6.38;;;5.50;;
16029;SDS011;34770;49.272;11.070;2023-11-19T06:15:35;7.40;;;3.60;;
16029;SDS011;34770;49.272;11.070;2023-11-19T06:18:01;4.15;;;3.75;;
16029;SDS011;34770;49.272;11.070;2023-11-19T06:20:28;3.80;;;3.50;;
16029;SDS011;34770;49.272;11.070;2023-11-19T06:22:55;4.03;;;3.63;;
16029;SDS011;34770;49.272;11.070;2023-11-19T06:25:21;3.78;;;3.45;;
16029;SDS011;34770;49.272;11.070;2023-11-19T06:27:46;3.92;;;3.25;;
16029;SDS011;34770;49.272;11.070;2023-11-19T06:30:11;6.35;;;3.83;;
16029;SDS011;34770;49.272;11.070;2023-11-19T06:32:37;3.05;;;2.75;;
16029;SDS011;34770;49.272;11.070;2023-11-19T06:35:03;3.38;;;3.08;;
16029;SDS011;34770;49.272;11.070;2023-11-19T06:37:29;3.72;;;3.40;;
16029;SDS011;34770;49.272;11.070;2023-11-19T06:39:55;3.88;;;3.47;;
16029;SDS011;34770;49.272;11.070;2023-11-19T06:42:20;4.30;;;3.90;;
16029;SDS011;34770;49.272;11.070;2023-11-19T06:44:46;3.75;;;3.45;;
16029;SDS011;34770;49.272;11.070;2023-11-19T06:47:11;3.67;;;3.38;;
16029;SDS011;34770;49.272;11.070;2023-11-19T06:49:36;3.38;;;3.00;;
16029;SDS011;34770;49.272;11.070;2023-11-19T06:52:02;2.90;;;2.70;;
16029;SDS011;34770;49.272;11.070;2023-11-19T06:54:27;2.53;;;2.33;;
16029;SDS011;34770;49.272;11.070;2023-11-19T06:56:53;2.97;;;2.78;;
16029;SDS011;34770;49.272;11.070;2023-11-19T06:59:18;2.47;;;2.28;;
16029;SDS011;34770;49.272;11.070;2023-11-19T07:01:44;5.18;;;2.83;;
16029;SDS011;34770;49.272;11.070;2023-11-19T07:04:12;4.95;;;4.45;;
16029;SDS011;34770;49.272;11.070;2023-11-19T07:06:38;5.68;;;5.18;;
16029;SDS011;34770;49.272;11.070;2023-11-19T07:09:05;17.92;;;10.90;;
16029;SDS011;34770;49.272;11.070;2023-11-19T07:11:35;5.07;;;3.40;;
16029;SDS011;34770;49.272;11.070;2023-11-19T07:14:01;3.83;;;3.53;;
16029;SDS011;34770;49.272;11.070;2023-11-19T07:16:27;3.22;;;3.00;;
16029;SDS011;34770;49.272;11.070;2023-11-19T07:18:53;3.25;;;3.03;;
16029;SDS011;34770;49.272;11.070;2023-11-19T07:21:19;3.42;;;3.13;;
16029;SDS011;34770;49.272;11.070;2023-11-19T07:23:44;2.55;;;2.35;;
16029;SDS011;34770;49.272;11.070;2023-11-19T07:26:10;3.25;;;2.70;;
16029;SDS011;34770;49.272;11.070;2023-11-19T07:28:35;3.20;;;3.00;;
16029;SDS011;34770;49.272;11.070;2023-11-19T07:31:01;3.08;;;1.80;;
16029;SDS011;34770;49.272;11.070;2023-11-19T07:33:27;2.28;;;2.08;;
16029;SDS011;34770;49.272;11.070;2023-11-19T07:35:53;2.00;;;1.90;;
16029;SDS011;34770;49.272;11.070;2023-11-19T07:38:18;1.95;;;1.77;;
16029;SDS011;34770;49.272;11.070;2023-11-19T07:40:43;1.83;;;1.48;;
16029;SDS011;34770;49.272;11.070;2023-11-19T07:43:09;2.05;;;1.95;;
16029;SDS011;34770;49.272;11.070;2023-11-19T07:45:34;2.75;;;2.50;;
16029;SDS011;34770;49.272;11.070;2023-11-19T07:47:59;1.58;;;1.48;;
16029;SDS011;34770;49.272;11.070;2023-11-19T07:50:26;1.70;;;1.60;;
16029;SDS011;34770;49.272;11.070;2023-11-19T07:52:52;3.28;;;2.65;;
16029;SDS011;34770;49.272;11.070;2023-11-19T07:55:18;5.50;;;4.15;;
16029;SDS011;34770;49.272;11.070;2023-11-19T07:57:44;6.82;;;4.80;;
16029;SDS011;34770;49.272;11.070;2023-11-19T08:00:10;5.85;;;4.07;;
16029;SDS011;34770;49.272;11.070;2023-11-19T08:02:37;3.50;;;2.70;;
16029;SDS011;34770;49.272;11.070;2023-11-19T08:05:03;3.03;;;2.72;;
16029;SDS011;34770;49.272;11.070;2023-11-19T08:07:29;3.70;;;3.10;;
16029;SDS011;34770;49.272;11.070;2023-11-19T08:09:54;3.95;;;1.92;;
16029;SDS011;34770;49.272;11.070;2023-11-19T08:12:19;4.28;;;3.40;;
16029;SDS011;34770;49.272;11.070;2023-11-19T08:14:45;2.33;;;2.00;;
16029;SDS011;34770;49.272;11.070;2023-11-19T08:17:10;2.10;;;1.98;;
16029;SDS011;34770;49.272;11.070;2023-11-19T08:19:36;3.88;;;2.95;;
16029;SDS011;34770;49.272;11.070;2023-11-19T08:22:01;2.55;;;2.35;;
16029;SDS011;34770;49.272;11.070;2023-11-19T08:24:27;3.40;;;2.47;;
16029;SDS011;34770;49.272;11.070;2023-11-19T08:26:53;2.63;;;2.42;;
16029;SDS011;34770;49.272;11.070;2023-11-19T08:29:19;7.38;;;5.47;;
16029;SDS011;34770;49.272;11.070;2023-11-19T08:31:44;3.45;;;2.78;;
16029;SDS011;34770;49.272;11.070;2023-11-19T08:34:11;2.85;;;2.65;;
16029;SDS011;34770;49.272;11.070;2023-11-19T08:36:36;3.15;;;2.28;;
16029;SDS011;34770;49.272;11.070;2023-11-19T08:39:02;1.95;;;1.75;;
16029;SDS011;34770;49.272;11.070;2023-11-19T08:41:28;1.80;;;1.70;;
16029;SDS011;34770;49.272;11.070;2023-11-19T08:43:53;1.60;;;1.50;;
16029;SDS011;34770;49.272;11.070;2023-11-19T08:46:19;1.85;;;1.73;;
16029;SDS011;34770;49.272;11.070;2023-11-19T08:48:44;3.35;;;1.80;;
16029;SDS011;34770;49.272;11.070;2023-11-19T08:51:11;2.00;;;1.90;;
16029;SDS011;34770;49.272;11.070;2023-11-19T08:53:37;1.60;;;1.50;;
16029;SDS011;34770;49.272;11.070;2023-11-19T08:56:02;4.88;;;1.55;;
16029;SDS011;34770;49.272;11.070;2023-11-19T08:58:28;2.22;;;1.85;;
16029;SDS011;34770;49.272;11.070;2023-11-19T09:00:53;3.03;;;1.48;;
16029;SDS011;34770;49.272;11.070;2023-11-19T09:03:19;1.85;;;1.75;;
16029;SDS011;34770;49.272;11.070;2023-11-19T09:05:45;1.00;;;1.00;;
16029;SDS011;34770;49.272;11.070;2023-11-19T09:08:10;5.72;;;1.92;;
16029;SDS011;34770;49.272;11.070;2023-11-19T09:10:36;1.42;;;1.35;;
16029;SDS011;34770;49.272;11.070;2023-11-19T09:13:02;1.80;;;1.70;;
16029;SDS011;34770;49.272;11.070;2023-11-19T09:15:28;3.92;;;3.00;;
16029;SDS011;34770;49.272;11.070;2023-11-19T09:17:54;27.73;;;13.90;;
16029;SDS011;34770;49.272;11.070;2023-11-19T09:20:19;6.78;;;3.85;;
16029;SDS011;34770;49.272;11.070;2023-11-19T09:22:44;3.33;;;2.60;;
16029;SDS011;34770;49.272;11.070;2023-11-19T09:25:11;1.90;;;1.48;;
16029;SDS011;34770;49.272;11.070;2023-11-19T09:27:36;1.10;;;1.10;;
16029;SDS011;34770;49.272;11.070;2023-11-19T09:30:01;2.83;;;1.23;;
16029;SDS011;34770;49.272;11.070;2023-11-19T09:32:28;1.13;;;0.90;;
16029;SDS011;34770;49.272;11.070;2023-11-19T09:34:54;2.47;;;1.10;;
16029;SDS011;34770;49.272;11.070;2023-11-19T09:37:19;1.55;;;1.35;;
16029;SDS011;34770;49.272;11.070;2023-11-19T09:39:45;4.43;;;1.20;;
16029;SDS011;34770;49.272;11.070;2023-11-19T09:42:10;5.60;;;1.20;;
16029;SDS011;34770;49.272;11.070;2023-11-19T09:44:37;1.40;;;1.23;;
16029;SDS011;34770;49.272;11.070;2023-11-19T09:47:04;1.50;;;1.40;;
16029;SDS011;34770;49.272;11.070;2023-11-19T09:49:31;2.72;;;1.52;;
16029;SDS011;34770;49.272;11.070;2023-11-19T09:51:58;1.55;;;1.45;;
16029;SDS011;34770;49.272;11.070;2023-11-19T09:54:23;1.05;;;1.05;;
16029;SDS011;34770;49.272;11.070;2023-11-19T09:56:49;7.78;;;1.90;;
16029;SDS011;34770;49.272;11.070;2023-11-19T09:59:14;2.03;;;1.75;;
16029;SDS011;34770;49.272;11.070;2023-11-19T10:01:40;2.20;;;1.92;;
16029;SDS011;34770;49.272;11.070;2023-11-19T10:04:07;5.45;;;1.80;;
16029;SDS011;34770;49.272;11.070;2023-11-19T10:06:34;2.10;;;1.70;;
16029;SDS011;34770;49.272;11.070;2023-11-19T10:09:00;2.33;;;1.35;;
16029;SDS011;34770;49.272;11.070;2023-11-19T10:11:26;5.05;;;2.67;;
16029;SDS011;34770;49.272;11.070;2023-11-19T10:13:52;3.97;;;1.80;;
16029;SDS011;34770;49.272;11.070;2023-11-19T10:16:19;1.30;;;1.20;;
16029;SDS011;34770;49.272;11.070;2023-11-19T10:18:45;1.38;;;1.20;;
16029;SDS011;34770;49.272;11.070;2023-11-19T10:21:18;4.22;;;1.40;;
16029;SDS011;34770;49.272;11.070;2023-11-19T10:23:53;1.13;;;1.10;;
16029;SDS011;34770;49.272;11.070;2023-11-19T10:26:22;1.38;;;1.27;;
16029;SDS011;34770;49.272;11.070;2023-11-19T10:28:48;1.85;;;1.60;;
16029;SDS011;34770;49.272;11.070;2023-11-19T10:31:14;4.72;;;2.33;;
16029;SDS011;34770;49.272;11.070;2023-11-19T10:33:40;5.07;;;2.60;;
16029;SDS011;34770;49.272;11.070;2023-11-19T10:36:07;2.88;;;2.38;;
16029;SDS011;34770;49.272;11.070;2023-11-19T10:38:32;4.07;;;2.20;;
16029;SDS011;34770;49.272;11.070;2023-11-19T10:40:58;4.20;;;2.80;;
16029;SDS011;34770;49.272;11.070;2023-11-19T10:43:24;2.10;;;1.90;;
16029;SDS011;34770;49.272;11.070;2023-11-19T10:45:50;6.35;;;1.83;;
16029;SDS011;34770;49.272;11.070;2023-11-19T10:48:15;4.65;;;2.65;;
16029;SDS011;34770;49.272;11.070;2023-11-19T10:50:41;1.35;;;1.25;;
16029;SDS011;34770;49.272;11.070;2023-11-19T10:53:09;2.15;;;1.50;;
16029;SDS011;34770;49.272;11.070;2023-11-19T10:55:39;2.95;;;1.60;;
16029;SDS011;34770;49.272;11.070;2023-11-19T10:58:05;1.70;;;1.38;;
16029;SDS011;34770;49.272;11.070;2023-11-19T11:00:47;3.92;;;2.42;;
16029;SDS011;34770;49.272;11.070;2023-11-19T11:03:17;2.33;;;2.13;;
16029;SDS011;34770;49.272;11.070;2023-11-19T11:05:46;2.03;;;1.83;;
16029;SDS011;34770;49.272;11.070;2023-11-19T11:08:12;1.50;;;1.40;;
16029;SDS011;34770;49.272;11.070;2023-11-19T11:10:39;2.45;;;1.70;;
16029;SDS011;34770;49.272;11.070;2023-11-19T11:13:27;2.55;;;1.90;;
16029;SDS011;34770;49.272;11.070;2023-11-19T11:15:54;2.78;;;2.20;;
16029;SDS011;34770;49.272;11.070;2023-11-19T11:18:23;3.50;;;2.60;;
16029;SDS011;34770;49.272;11.070;2023-11-19T11:20:50;4.45;;;2.40;;
16029;SDS011;34770;49.272;11.070;2023-11-19T11:39:33;6.88;;;2.50;;
16029;SDS011;34770;49.272;11.070;2023-11-19T11:45:15;1.98;;;1.60;;
16029;SDS011;34770;49.272;11.070;2023-11-19T11:50:14;3.40;;;2.38;;
16029;SDS011;34770;49.272;11.070;2023-11-19T11:55:24;6.82;;;2.42;;
16029;SDS011;34770;49.272;11.070;2023-11-19T11:58:05;1.95;;;1.70;;
16029;SDS011;34770;49.272;11.070;2023-11-19T12:02:57;3.88;;;2.92;;
16029;SDS011;34770;49.272;11.070;2023-11-19T12:05:24;3.47;;;3.05;;
16029;SDS011;34770;49.272;11.070;2023-11-19T12:07:56;2.08;;;1.52;;
16029;SDS011;34770;49.272;11.070;2023-11-19T12:10:26;4.38;;;2.67;;
16029;SDS011;34770;49.272;11.070;2023-11-19T12:12:58;3.03;;;2.33;;
16029;SDS011;34770;49.272;11.070;2023-11-19T12:15:25;3.03;;;2.17;;
16029;SDS011;34770;49.272;11.070;2023-11-19T12:17:52;2.97;;;2.75;;
16029;SDS011;34770;49.272;11.070;2023-11-19T12:20:23;3.30;;;2.15;;
16029;SDS011;34770;49.272;11.070;2023-11-19T12:22:51;3.00;;;1.30;;
16029;SDS011;34770;49.272;11.070;2023-11-19T12:25:17;4.72;;;3.40;;
16029;SDS011;34770;49.272;11.070;2023-11-19T12:27:48;1.75;;;1.30;;
16029;SDS011;34770;49.272;11.070;2023-11-19T12:30:21;4.32;;;1.90;;
16029;SDS011;34770;49.272;11.070;2023-11-19T12:32:46;5.22;;;3.83;;
16029;SDS011;34770;49.272;11.070;2023-11-19T12:35:12;1.73;;;1.50;;
16029;SDS011;34770;49.272;11.070;2023-11-19T12:37:41;7.80;;;5.10;;
16029;SDS011;34770;49.272;11.070;2023-11-19T12:40:11;3.03;;;2.00;;
16029;SDS011;34770;49.272;11.070;2023-11-19T12:42:38;8.80;;;6.47;;
16029;SDS011;34770;49.272;11.070;2023-11-19T12:45:04;6.18;;;2.95;;
16029;SDS011;34770;49.272;11.070;2023-11-19T12:47:30;10.25;;;6.43;;
16029;SDS011;34770;49.272;11.070;2023-11-19T12:49:59;7.78;;;3.70;;
16029;SDS011;34770;49.272;11.070;2023-11-19T12:52:24;3.20;;;1.70;;
16029;SDS011;34770;49.272;11.070;2023-11-19T12:54:50;1.75;;;1.35;;
16029;SDS011;34770;49.272;11.070;2023-11-19T12:57:16;3.92;;;1.55;;
16029;SDS011;34770;49.272;11.070;2023-11-19T12:59:53;2.50;;;1.17;;
16029;SDS011;34770;49.272;11.070;2023-11-19T13:02:20;1.70;;;1.30;;
16029;SDS011;34770;49.272;11.070;2023-11-19T13:04:46;2.33;;;1.40;;
16029;SDS011;34770;49.272;11.070;2023-11-19T13:07:11;1.77;;;1.20;;
16029;SDS011;34770;49.272;11.070;2023-11-19T13:09:36;2.45;;;1.10;;
16029;SDS011;34770;49.272;11.070;2023-11-19T13:12:11;2.90;;;1.30;;
16029;SDS011;34770;49.272;11.070;2023-11-19T13:14:38;1.77;;;1.50;;
16029;SDS011;34770;49.272;11.070;2023-11-19T13:17:03;3.65;;;3.20;;
16029;SDS011;34770;49.272;11.070;2023-11-19T13:19:30;3.88;;;3.30;;
16029;SDS011;34770;49.272;11.070;2023-11-19T13:21:55;3.30;;;2.38;;
16029;SDS011;34770;49.272;11.070;2023-11-19T13:24:21;2.75;;;1.90;;
16029;SDS011;34770;49.272;11.070;2023-11-19T13:26:46;2.90;;;1.33;;
16029;SDS011;34770;49.272;11.070;2023-11-19T13:29:12;2.47;;;1.75;;
16029;SDS011;34770;49.272;11.070;2023-11-19T13:31:37;2.92;;;1.63;;
16029;SDS011;34770;49.272;11.070;2023-11-19T13:34:03;1.85;;;1.33;;
16029;SDS011;34770;49.272;11.070;2023-11-19T13:36:28;5.07;;;2.92;;
16029;SDS011;34770;49.272;11.070;2023-11-19T13:38:54;6.90;;;1.92;;
16029;SDS011;34770;49.272;11.070;2023-11-19T13:41:24;6.97;;;5.65;;
16029;SDS011;34770;49.272;11.070;2023-11-19T13:43:50;8.48;;;5.50;;
16029;SDS011;34770;49.272;11.070;2023-11-19T13:46:15;5.13;;;1.85;;
16029;SDS011;34770;49.272;11.070;2023-11-19T13:48:41;3.22;;;2.05;;
16029;SDS011;34770;49.272;11.070;2023-11-19T13:51:06;2.50;;;1.80;;
16029;SDS011;34770;49.272;11.070;2023-11-19T13:53:32;1.95;;;1.50;;
16029;SDS011;34770;49.272;11.070;2023-11-19T13:55:57;1.30;;;1.20;;
16029;SDS011;34770;49.272;11.070;2023-11-19T13:58:23;3.45;;;1.08;;
16029;SDS011;34770;49.272;11.070;2023-11-19T14:00:48;3.47;;;1.33;;
16029;SDS011;34770;49.272;11.070;2023-11-19T14:03:14;1.70;;;1.20;;
16029;SDS011;34770;49.272;11.070;2023-11-19T14:05:39;4.20;;;1.63;;
16029;SDS011;34770;49.272;11.070;2023-11-19T14:08:06;4.07;;;1.52;;
16029;SDS011;34770;49.272;11.070;2023-11-19T14:10:37;1.42;;;1.27;;
16029;SDS011;34770;49.272;11.070;2023-11-19T14:13:04;1.65;;;1.48;;
16029;SDS011;34770;49.272;11.070;2023-11-19T14:15:29;1.77;;;1.55;;
16029;SDS011;34770;49.272;11.070;2023-11-19T14:17:55;1.63;;;1.20;;
16029;SDS011;34770;49.272;11.070;2023-11-19T14:20:20;4.40;;;2.33;;
16029;SDS011;34770;49.272;11.070;2023-11-19T14:22:46;4.72;;;2.20;;
16029;SDS011;34770;49.272;11.070;2023-11-19T14:25:13;7.05;;;1.70;;
16029;SDS011;34770;49.272;11.070;2023-11-19T14:27:39;3.38;;;1.92;;
16029;SDS011;34770;49.272;11.070;2023-11-19T14:30:09;5.45;;;3.38;;
16029;SDS011;34770;49.272;11.070;2023-11-19T14:32:36;2.55;;;1.65;;
16029;SDS011;34770;49.272;11.070;2023-11-19T14:35:03;2.70;;;1.77;;
16029;SDS011;34770;49.272;11.070;2023-11-19T14:37:31;4.47;;;1.85;;
16029;SDS011;34770;49.272;11.070;2023-11-19T14:39:57;5.80;;;3.05;;
16029;SDS011;34770;49.272;11.070;2023-11-19T14:42:23;6.57;;;3.83;;
16029;SDS011;34770;49.272;11.070;2023-11-19T14:44:50;5.13;;;3.42;;
16029;SDS011;34770;49.272;11.070;2023-11-19T14:47:17;4.90;;;2.88;;
16029;SDS011;34770;49.272;11.070;2023-11-19T14:49:42;12.90;;;8.38;;
16029;SDS011;34770;49.272;11.070;2023-11-19T14:52:08;2.90;;;2.20;;
16029;SDS011;34770;49.272;11.070;2023-11-19T14:54:33;3.83;;;2.78;;
16029;SDS011;34770;49.272;11.070;2023-11-19T14:56:59;2.22;;;2.03;;
16029;SDS011;34770;49.272;11.070;2023-11-19T14:59:25;2.20;;;1.75;;